createdAt,value
2019-04-27T00:02:57.727Z,99.90
2019-04-27T00:07:03.353Z,99.90
2019-04-27T00:11:13.957Z,99.90
2019-04-27T00:15:31.321Z,99.90
2019-04-27T00:20:09.316Z,99.90
2019-04-27T00:24:15.554Z,99.90
2019-04-27T00:28:20.219Z,99.90
2019-04-27T00:32:25.039Z,99.90
2019-04-27T00:36:39.323Z,99.90
2019-04-27T00:40:54.316Z,99.90
2019-04-27T00:44:59.784Z,99.90
2019-04-27T00:49:04.882Z,99.80
2019-04-27T00:53:09.539Z,99.90
2019-04-27T00:57:45.902Z,99.90
2019-04-27T01:02:08.559Z,99.00
2019-04-27T01:06:14.904Z,99.50
2019-04-27T01:10:20.086Z,99.20
2019-04-27T01:14:26.328Z,99.70
2019-04-27T01:18:31.123Z,99.90
2019-04-27T01:22:36.412Z,99.90
2019-04-27T01:27:00.045Z,99.90
2019-04-27T01:31:09.251Z,99.80
2019-04-27T01:35:13.998Z,99.80
2019-04-27T01:39:19.158Z,99.60
2019-04-27T01:43:24.354Z,99.60
2019-04-27T01:47:29.082Z,99.80
2019-04-27T01:51:33.791Z,99.80
2019-04-27T01:55:40.607Z,99.90
2019-04-27T01:59:44.957Z,99.70
2019-04-27T02:04:09.284Z,99.70
2019-04-27T02:08:14.648Z,99.90
2019-04-27T02:12:22.682Z,99.90
2019-04-27T02:16:30.611Z,99.90
2019-04-27T02:20:36.142Z,99.70
2019-04-27T02:24:41.847Z,99.60
2019-04-27T02:29:04.876Z,99.30
2019-04-27T02:33:41.335Z,99.60
2019-04-27T02:37:50.067Z,99.50
2019-04-27T02:41:54.209Z,99.10
2019-04-27T02:46:00.490Z,98.50
2019-04-27T02:50:06.224Z,98.60
2019-04-27T02:54:12.552Z,98.70
2019-04-27T02:58:21.218Z,98.70
2019-04-27T03:02:34.265Z,98.60
2019-04-27T03:06:39.952Z,98.80
2019-04-27T03:10:46.030Z,99.30
2019-04-27T03:15:11.814Z,98.90
2019-04-27T03:19:29.721Z,98.50
2019-04-27T03:23:54.082Z,98.90
2019-04-27T03:28:03.690Z,98.80
2019-04-27T03:32:12.599Z,98.40
2019-04-27T03:36:15.193Z,98.10
2019-04-27T03:40:20.513Z,98.50
2019-04-27T03:44:26.321Z,98.50
2019-04-27T03:48:30.987Z,98.70
2019-04-27T03:52:43.705Z,97.60
2019-04-27T03:57:02.408Z,98.40
2019-04-27T04:01:07.267Z,98.20
2019-04-27T04:05:13.543Z,98.20
2019-04-27T04:09:19.966Z,97.70
2019-04-27T04:13:34.670Z,98.10
2019-04-27T04:17:40.345Z,97.70
2019-04-27T04:21:46.763Z,97.20
2019-04-27T04:25:51.378Z,97.90
2019-04-27T04:29:56.096Z,98.00
2019-04-27T04:34:00.884Z,97.60
2019-04-27T04:38:05.618Z,97.30
2019-04-27T04:42:19.718Z,97.70
2019-04-27T04:46:43.026Z,97.90
2019-04-27T04:50:50.080Z,97.80
2019-04-27T04:54:54.196Z,97.50
2019-04-27T04:59:00.170Z,97.70
2019-04-27T05:03:04.991Z,98.20
2019-04-27T05:07:09.611Z,97.80
2019-04-27T05:11:14.336Z,97.90
2019-04-27T05:15:20.646Z,97.40
2019-04-27T05:19:25.906Z,98.10
2019-04-27T05:23:30.514Z,97.30
2019-04-27T05:27:35.504Z,97.20
2019-04-27T05:31:40.115Z,96.70
2019-04-27T05:35:44.768Z,97.40
2019-04-27T05:39:49.403Z,96.60
2019-04-27T05:44:20.799Z,97.00
2019-04-27T05:48:30.314Z,97.00
2019-04-27T05:52:33.947Z,96.80
2019-04-27T05:56:39.109Z,97.00
2019-04-27T06:00:44.015Z,96.40
2019-04-27T06:04:49.655Z,96.20
2019-04-27T06:08:54.463Z,96.20
2019-04-27T06:12:59.808Z,96.20
2019-04-27T06:17:05.768Z,96.10
2019-04-27T06:21:10.380Z,96.00
2019-04-27T06:25:16.353Z,95.10
2019-04-27T06:29:21.408Z,94.50
2019-04-27T06:33:31.961Z,94.10
2019-04-27T06:37:33.154Z,94.10
2019-04-27T06:41:39.770Z,94.50
2019-04-27T06:45:44.066Z,93.70
2019-04-27T06:49:49.547Z,93.90
2019-04-27T06:53:54.625Z,94.10
2019-04-27T06:57:59.304Z,94.20
2019-04-27T07:02:04.143Z,94.30
2019-04-27T07:06:08.997Z,94.50
2019-04-27T07:10:13.843Z,94.50
2019-04-27T07:14:19.748Z,94.00
2019-04-27T07:18:24.697Z,93.70
2019-04-27T07:22:30.001Z,93.10
2019-04-27T07:26:34.806Z,93.50
2019-04-27T07:30:39.458Z,93.50
2019-04-27T07:34:44.355Z,92.30
2019-04-27T07:38:49.027Z,91.90
2019-04-27T07:42:59.411Z,91.90
2019-04-27T07:47:24.954Z,91.90
2019-04-27T07:51:34.048Z,90.50
2019-04-27T07:55:35.990Z,89.90
2019-04-27T07:59:42.046Z,90.20
2019-04-27T08:03:48.579Z,90.60
2019-04-27T08:07:53.422Z,87.70
2019-04-27T08:11:58.661Z,88.40
2019-04-27T08:16:03.349Z,88.50
2019-04-27T08:20:09.202Z,89.10
2019-04-27T08:24:14.001Z,88.10
2019-04-27T08:28:29.927Z,90.10
2019-04-27T08:32:39.043Z,89.20
2019-04-27T08:36:44.159Z,89.40
2019-04-27T08:40:49.412Z,89.40
2019-04-27T08:44:54.530Z,89.20
2019-04-27T08:48:59.146Z,85.20
2019-04-27T08:53:03.903Z,80.60
2019-04-27T08:57:09.763Z,75.50
2019-04-27T09:01:20.719Z,72.40
2019-04-27T09:05:32.413Z,74.80
2019-04-27T09:09:45.013Z,72.50
2019-04-27T09:13:58.927Z,74.60
2019-04-27T09:18:04.049Z,76.20
2019-04-27T09:22:15.846Z,75.30
2019-04-27T09:26:15.212Z,73.40
2019-04-27T09:30:19.921Z,70.90
2019-04-27T09:34:26.100Z,70.30
2019-04-27T09:38:30.870Z,71.10
2019-04-27T09:42:38.157Z,67.30
2019-04-27T09:46:42.277Z,69.30
2019-04-27T09:50:47.028Z,68.60
2019-04-27T09:54:51.783Z,69.40
2019-04-27T09:58:57.287Z,70.80
2019-04-27T10:03:02.054Z,70.00
2019-04-27T10:07:06.992Z,70.60
2019-04-27T10:11:18.323Z,71.70
2019-04-27T10:15:23.809Z,68.50
2019-04-27T10:19:32.985Z,68.30
2019-04-27T10:23:36.520Z,70.40
2019-04-27T10:27:45.786Z,67.80
2019-04-27T10:31:50.793Z,65.80
2019-04-27T10:35:56.436Z,62.70
2019-04-27T10:40:01.556Z,61.70
2019-04-27T10:44:07.644Z,62.70
2019-04-27T10:48:12.403Z,67.60
2019-04-27T10:52:17.087Z,66.60
2019-04-27T10:56:21.713Z,62.40
2019-04-27T11:00:33.308Z,63.60
2019-04-27T11:04:56.629Z,60.00
2019-04-27T11:09:01.651Z,59.80
2019-04-27T11:13:07.965Z,59.90
2019-04-27T11:17:13.759Z,59.10
2019-04-27T11:21:18.737Z,59.20
2019-04-27T11:25:23.475Z,56.90
2019-04-27T11:29:28.423Z,56.50
2019-04-27T11:33:34.273Z,56.30
2019-04-27T11:37:39.415Z,55.70
2019-04-27T11:41:44.386Z,52.80
2019-04-27T11:45:49.150Z,53.30
2019-04-27T11:49:54.348Z,54.30
2019-04-27T11:54:00.312Z,52.80
2019-04-27T11:58:06.525Z,51.80
2019-04-27T12:02:11.474Z,52.50
2019-04-27T12:06:17.288Z,48.30
2019-04-27T12:10:22.169Z,48.70
2019-04-27T12:14:26.822Z,50.20
2019-04-27T12:18:31.586Z,44.70
2019-04-27T12:22:37.962Z,42.60
2019-04-27T12:27:05.782Z,46.00
2019-04-27T12:31:36.610Z,47.50
2019-04-27T12:35:41.406Z,46.40
2019-04-27T12:39:46.134Z,48.00
2019-04-27T12:43:50.767Z,47.90
2019-04-27T12:47:56.568Z,47.30
2019-04-27T12:52:01.602Z,50.10
2019-04-27T12:56:24.738Z,56.50
2019-04-27T13:00:33.921Z,56.20
2019-04-27T13:04:38.655Z,54.10
2019-04-27T13:08:45.788Z,50.80
2019-04-27T13:12:50.520Z,51.90
2019-04-27T13:16:56.084Z,53.50
2019-04-27T13:21:01.879Z,57.60
2019-04-27T13:25:07.573Z,58.40
2019-04-27T13:29:12.217Z,57.80
2019-04-27T13:33:17.545Z,58.50
2019-04-27T13:37:37.810Z,58.60
2019-04-27T13:41:42.615Z,58.20
2019-04-27T13:46:01.902Z,59.50
2019-04-27T13:50:12.624Z,57.40
2019-04-27T13:54:25.391Z,59.40
2019-04-27T13:58:24.379Z,57.50
2019-04-27T14:02:32.273Z,60.20
2019-04-27T14:06:35.491Z,60.00
2019-04-27T14:10:40.262Z,60.30
2019-04-27T14:14:44.943Z,62.00
2019-04-27T14:18:49.534Z,57.20
2019-04-27T14:22:56.135Z,57.10
2019-04-27T14:27:00.815Z,60.10
2019-04-27T14:31:05.606Z,55.70
2019-04-27T14:35:10.519Z,55.30
2019-04-27T14:39:18.505Z,53.70
2019-04-27T14:43:23.430Z,50.00
2019-04-27T14:47:28.089Z,49.20
2019-04-27T14:51:32.734Z,55.20
2019-04-27T14:55:38.804Z,50.20
2019-04-27T14:59:43.911Z,47.80
2019-04-27T15:03:48.635Z,50.40
2019-04-27T15:07:54.623Z,50.00
2019-04-27T15:12:00.494Z,50.70
2019-04-27T15:16:06.609Z,49.00
2019-04-27T15:20:18.686Z,50.10
2019-04-27T15:24:25.011Z,50.90
2019-04-27T15:28:32.222Z,54.30
2019-04-27T15:33:00.384Z,52.50
2019-04-27T15:37:20.619Z,52.70
2019-04-27T15:41:34.244Z,52.20
2019-04-27T15:45:39.241Z,54.20
2019-04-27T15:49:49.739Z,56.50
2019-04-27T15:53:53.934Z,52.10
2019-04-27T15:57:57.674Z,50.60
2019-04-27T16:02:05.566Z,50.90
2019-04-27T16:06:11.793Z,52.70
2019-04-27T16:10:15.349Z,50.20
2019-04-27T16:14:19.978Z,53.80
2019-04-27T16:18:28.518Z,51.80
2019-04-27T16:22:31.003Z,52.70
2019-04-27T16:26:36.022Z,54.20
2019-04-27T16:30:45.572Z,53.80
2019-04-27T16:34:49.975Z,54.60
2019-04-27T16:39:08.384Z,56.50
2019-04-27T16:43:11.864Z,54.90
2019-04-27T16:47:23.890Z,56.60
2019-04-27T16:51:23.338Z,57.80
2019-04-27T16:55:34.220Z,57.60
2019-04-27T16:59:43.021Z,57.60
2019-04-27T17:03:42.006Z,57.60
2019-04-27T17:07:46.949Z,57.50
2019-04-27T17:11:53.077Z,58.10
2019-04-27T17:16:18.872Z,58.80
2019-04-27T17:20:24.940Z,61.80
2019-04-27T17:24:42.089Z,61.60
2019-04-27T17:28:50.851Z,61.50
2019-04-27T17:33:05.882Z,60.10
2019-04-27T17:37:08.331Z,60.60
2019-04-27T17:41:13.070Z,61.70
2019-04-27T17:45:19.369Z,62.80
2019-04-27T17:49:24.512Z,64.00
2019-04-27T17:53:31.790Z,64.50
2019-04-27T17:57:36.001Z,65.60
2019-04-27T18:01:40.651Z,67.40
2019-04-27T18:05:49.349Z,69.80
2019-04-27T18:09:51.866Z,68.70
2019-04-27T18:14:00.445Z,68.80
2019-04-27T18:18:10.792Z,69.30
2019-04-27T18:22:15.431Z,72.20
2019-04-27T18:26:29.520Z,71.20
2019-04-27T18:31:02.674Z,71.50
2019-04-27T18:35:08.124Z,71.90
2019-04-27T18:39:13.860Z,72.50
2019-04-27T18:43:19.453Z,72.50
2019-04-27T18:47:24.154Z,73.30
2019-04-27T18:51:41.286Z,74.20
2019-04-27T18:55:50.094Z,74.20
2019-04-27T18:59:52.660Z,75.30
2019-04-27T19:03:58.721Z,75.90
2019-04-27T19:08:03.569Z,75.60
2019-04-27T19:12:08.207Z,78.00
2019-04-27T19:16:12.831Z,77.80
2019-04-27T19:20:18.624Z,75.60
2019-04-27T19:24:23.642Z,77.20
2019-04-27T19:28:58.350Z,76.20
2019-04-27T19:33:03.134Z,75.00
2019-04-27T19:37:08.244Z,76.10
2019-04-27T19:41:13.181Z,76.00
2019-04-27T19:45:21.063Z,76.70
2019-04-27T19:49:25.784Z,76.70
2019-04-27T19:53:31.554Z,77.10
2019-04-27T19:57:39.373Z,77.30
2019-04-27T20:01:45.729Z,77.50
2019-04-27T20:05:51.921Z,77.10
2019-04-27T20:10:01.201Z,77.70
2019-04-27T20:14:07.241Z,77.70
2019-04-27T20:18:12.300Z,77.90
2019-04-27T20:22:18.662Z,78.80
2019-04-27T20:26:23.778Z,78.70
2019-04-27T20:30:28.483Z,79.30
2019-04-27T20:34:33.834Z,79.80
2019-04-27T20:38:38.597Z,80.20
2019-04-27T20:42:43.553Z,80.30
2019-04-27T20:46:48.499Z,80.70
2019-04-27T20:50:53.171Z,81.00
2019-04-27T20:54:58.290Z,81.00
2019-04-27T20:59:03.102Z,82.10
2019-04-27T21:03:32.506Z,81.70
2019-04-27T21:07:51.271Z,81.40
2019-04-27T21:11:57.424Z,81.40
2019-04-27T21:16:02.470Z,81.30
2019-04-27T21:20:07.358Z,81.70
2019-04-27T21:24:14.814Z,82.50
2019-04-27T21:28:20.260Z,82.50
2019-04-27T21:32:24.993Z,82.90
2019-04-27T21:36:30.983Z,83.40
2019-04-27T21:40:36.247Z,85.20
2019-04-27T21:44:42.037Z,84.50
2019-04-27T21:48:47.690Z,84.20
2019-04-27T21:53:02.508Z,83.90
2019-04-27T21:57:08.242Z,83.40
2019-04-27T22:01:21.661Z,84.10
2019-04-27T22:05:27.003Z,84.60
2019-04-27T22:09:31.795Z,84.40
2019-04-27T22:13:37.188Z,85.60
2019-04-27T22:17:42.133Z,86.20
2019-04-27T22:21:47.046Z,88.30
2019-04-27T22:25:54.597Z,87.40
2019-04-27T22:30:01.074Z,87.10
2019-04-27T22:34:21.109Z,87.40
2019-04-27T22:38:26.249Z,88.80
2019-04-27T22:42:44.157Z,88.80
2019-04-27T22:46:50.215Z,87.90
2019-04-27T22:50:55.064Z,89.10
2019-04-27T22:55:01.684Z,89.10
2019-04-27T22:59:16.336Z,89.90
2019-04-27T23:03:27.459Z,89.90
2019-04-27T23:07:32.443Z,89.50
2019-04-27T23:11:37.231Z,90.30
2019-04-27T23:15:45.084Z,90.00
2019-04-27T23:19:51.006Z,90.50
2019-04-27T23:23:56.615Z,91.00
2019-04-27T23:28:01.262Z,90.90
2019-04-27T23:32:11.714Z,90.60
2019-04-27T23:36:16.642Z,90.70
2019-04-27T23:40:21.973Z,90.60
2019-04-27T23:44:27.126Z,90.80
2019-04-27T23:48:32.102Z,91.50
2019-04-27T23:52:56.568Z,91.10
2019-04-27T23:57:05.281Z,91.40
